Time;durP1;ratioP1;P1;durP2;ratioP2;P2;SDS_P1;SDS_P2;PMS_P1;PMS_P2;Temp;Humidity;BMP_temperature;BMP_pressure;BME280_temperature;BME280_humidity;BME280_pressure;Samples;Min_cycle;Max_cycle;Signal;HPM_P1;HPM_P2
2023/05/17 00:01:30;0.00;0.00;0.62;0.00;0.00;0.62;2.90;1.87;;;26.60;19.90;;;;;;2272504;60;20454;-63
2023/05/17 00:04:15;0.00;0.00;0.62;0.00;0.00;0.62;3.03;1.80;;;26.60;19.90;;;;;;2272203;60;20462;-63
2023/05/17 00:07:01;0.00;0.00;0.62;0.00;0.00;0.62;2.00;1.60;;;26.60;19.90;;;;;;2273252;60;20347;-63
2023/05/17 00:09:46;0.00;0.00;0.62;0.00;0.00;0.62;2.50;1.63;;;26.60;19.90;;;;;;2272142;61;20377;-63
2023/05/17 00:12:30;0.00;0.00;0.62;0.00;0.00;0.62;3.30;1.93;;;26.60;19.90;;;;;;2269342;60;20374;-64
2023/05/17 00:15:15;0.00;0.00;0.62;0.00;0.00;0.62;1.90;1.40;;;26.60;19.90;;;;;;2273019;60;20350;-63
2023/05/17 00:17:59;0.00;0.00;0.62;0.00;0.00;0.62;2.20;1.80;;;26.60;19.90;;;;;;2271889;60;20397;-62
2023/05/17 00:20:44;0.00;0.00;0.62;0.00;0.00;0.62;3.00;2.10;;;26.60;19.90;;;;;;2272260;60;20401;-63
2023/05/17 00:23:30;0.00;0.00;0.62;0.00;0.00;0.62;2.93;2.03;;;26.60;19.90;;;;;;2271733;60;20814;-63
2023/05/17 00:26:15;0.00;0.00;0.62;0.00;0.00;0.62;2.87;1.70;;;26.60;19.90;;;;;;2272196;60;20358;-61
2023/05/17 00:29:00;0.00;0.00;0.62;0.00;0.00;0.62;4.30;2.17;;;26.60;19.90;;;;;;2272609;60;20361;-61
2023/05/17 00:31:44;0.00;0.00;0.62;0.00;0.00;0.62;3.93;2.07;;;26.60;19.80;;;;;;2271971;60;20375;-61
2023/05/17 00:34:29;0.00;0.00;0.62;0.00;0.00;0.62;4.13;2.57;;;26.50;19.60;;;;;;2272445;60;20386;-60
2023/05/17 00:37:14;0.00;0.00;0.62;0.00;0.00;0.62;4.60;2.10;;;26.40;19.40;;;;;;2272932;60;20701;-60
2023/05/17 00:40:01;0.00;0.00;0.62;0.00;0.00;0.62;3.80;2.00;;;26.30;19.30;;;;;;2272109;60;20792;-60
2023/05/17 00:42:47;0.00;0.00;0.62;0.00;0.00;0.62;4.63;2.77;;;26.20;19.30;;;;;;2272664;60;20408;-60
2023/05/17 00:45:31;0.00;0.00;0.62;0.00;0.00;0.62;2.67;1.97;;;26.00;19.90;;;;;;2269464;60;20506;-60
2023/05/17 00:48:16;0.00;0.00;0.62;0.00;0.00;0.62;3.33;2.40;;;25.90;19.50;;;;;;2272381;60;20350;-59
2023/05/17 00:51:01;0.00;0.00;0.62;0.00;0.00;0.62;5.07;3.17;;;25.70;19.60;;;;;;2272580;60;20420;-60
2023/05/17 00:53:46;0.00;0.00;0.62;0.00;0.00;0.62;3.47;2.20;;;25.60;19.60;;;;;;2272325;60;20389;-60
2023/05/17 00:56:33;0.00;0.00;0.62;0.00;0.00;0.62;3.67;2.43;;;25.40;20.20;;;;;;2272147;60;20370;-60
2023/05/17 00:59:21;0.00;0.00;0.62;0.00;0.00;0.62;4.43;2.07;;;25.20;19.80;;;;;;2272417;60;20362;-60
2023/05/17 01:02:06;0.00;0.00;0.62;0.00;0.00;0.62;4.30;2.57;;;25.10;19.90;;;;;;2269017;60;20432;-57
2023/05/17 01:04:51;0.00;0.00;0.62;0.00;0.00;0.62;3.60;1.93;;;24.90;20.00;;;;;;2272809;60;20642;-60
2023/05/17 01:07:36;0.00;0.00;0.62;0.00;0.00;0.62;2.97;2.37;;;24.80;20.20;;;;;;2273096;60;20358;-59
2023/05/17 01:10:26;0.00;0.00;0.62;0.00;0.00;0.62;5.30;3.27;;;24.70;20.30;;;;;;2271837;61;20355;-60
2023/05/17 01:13:21;0.00;0.00;0.62;0.00;0.00;0.62;3.93;2.60;;;24.60;20.40;;;;;;2269595;61;20370;-58
2023/05/17 01:16:15;0.00;0.00;0.62;0.00;0.00;0.62;3.40;2.23;;;24.50;20.40;;;;;;2272625;60;20404;-60
2023/05/17 01:19:11;0.00;0.00;0.62;0.00;0.00;0.62;4.47;2.07;;;24.50;20.50;;;;;;2271855;60;20382;-58
2023/05/17 01:22:19;0.00;0.00;0.62;0.00;0.00;0.62;3.60;1.90;;;24.40;20.60;;;;;;2269475;61;20378;-60
2023/05/17 01:25:17;0.00;0.00;0.62;0.00;0.00;0.62;3.53;2.40;;;24.30;20.70;;;;;;2272149;60;20354;-59
2023/05/17 01:28:05;0.00;0.00;0.62;0.00;0.00;0.62;3.90;2.27;;;24.20;20.70;;;;;;2272760;60;20354;-60
2023/05/17 01:30:51;0.00;0.00;0.62;0.00;0.00;0.62;4.50;1.93;;;24.10;20.70;;;;;;2272025;60;20478;-57
2023/05/17 01:33:38;0.00;0.00;0.62;0.00;0.00;0.62;3.23;2.43;;;24.10;20.80;;;;;;2268735;60;20759;-60
2023/05/17 01:36:23;0.00;0.00;0.62;0.00;0.00;0.62;3.70;2.30;;;24.00;20.90;;;;;;2272826;60;20909;-59
2023/05/17 01:39:08;0.00;0.00;0.62;0.00;0.00;0.62;4.00;2.07;;;23.90;20.80;;;;;;2271855;61;20365;-59
2023/05/17 01:42:01;0.00;0.00;0.62;0.00;0.00;0.62;3.60;2.27;;;23.90;20.90;;;;;;2272732;60;20382;-59
2023/05/17 01:45:02;0.00;0.00;0.62;0.00;0.00;0.62;7.47;2.33;;;23.80;21.00;;;;;;2272191;60;20377;-59
2023/05/17 01:47:59;0.00;0.00;0.62;0.00;0.00;0.62;3.07;2.10;;;23.80;21.10;;;;;;2271996;60;20489;-60
2023/05/17 01:50:47;0.00;0.00;0.62;0.00;0.00;0.62;4.00;2.40;;;23.70;21.10;;;;;;2269245;61;20470;-58
2023/05/17 01:53:38;0.00;0.00;0.62;0.00;0.00;0.62;3.30;2.23;;;23.60;21.30;;;;;;2269829;61;20403;-58
2023/05/17 01:56:31;0.00;0.00;0.62;0.00;0.00;0.62;3.87;2.63;;;23.60;21.30;;;;;;2273224;60;20392;-60
2023/05/17 01:59:21;0.00;0.00;0.62;0.00;0.00;0.62;7.87;2.30;;;23.50;21.20;;;;;;2269705;61;20366;-59
2023/05/17 02:02:08;0.00;0.00;0.62;0.00;0.00;0.62;3.57;2.30;;;23.40;21.20;;;;;;2273175;60;20440;-58
2023/05/17 02:04:54;0.00;0.00;0.62;0.00;0.00;0.62;3.57;2.57;;;23.30;21.10;;;;;;2273408;60;20763;-58
2023/05/17 02:07:38;0.00;0.00;0.62;0.00;0.00;0.62;4.43;2.13;;;23.30;21.30;;;;;;2273008;60;20358;-61
2023/05/17 02:10:23;0.00;0.00;0.62;0.00;0.00;0.62;2.93;2.20;;;23.20;21.40;;;;;;2272534;60;21004;-60
2023/05/17 02:13:08;0.00;0.00;0.62;0.00;0.00;0.62;4.77;2.57;;;23.20;21.50;;;;;;2273212;60;20358;-59
2023/05/17 02:15:52;0.00;0.00;0.62;0.00;0.00;0.62;3.90;2.50;;;23.10;21.50;;;;;;2269695;61;20358;-61
2023/05/17 02:18:39;0.00;0.00;0.62;0.00;0.00;0.62;3.30;2.30;;;23.00;21.50;;;;;;2272949;60;20425;-59
2023/05/17 02:21:24;0.00;0.00;0.62;0.00;0.00;0.62;5.00;2.77;;;23.00;21.70;;;;;;2273137;61;20782;-59
2023/05/17 02:24:09;0.00;0.00;0.62;0.00;0.00;0.62;5.00;2.70;;;22.90;21.70;;;;;;2272347;60;20764;-61
2023/05/17 02:26:54;0.00;0.00;0.62;0.00;0.00;0.62;4.07;2.20;;;22.90;21.80;;;;;;2269976;61;20394;-60
2023/05/17 02:29:39;0.00;0.00;0.62;0.00;0.00;0.62;4.73;2.67;;;22.80;21.90;;;;;;2269273;60;20373;-61
2023/05/17 02:32:23;0.00;0.00;0.62;0.00;0.00;0.62;3.10;2.13;;;22.70;21.90;;;;;;2269483;61;20378;-58
2023/05/17 02:35:09;0.00;0.00;0.62;0.00;0.00;0.62;4.33;2.60;;;22.70;22.00;;;;;;2273446;60;20362;-60
2023/05/17 02:37:54;0.00;0.00;0.62;0.00;0.00;0.62;4.40;2.40;;;22.60;22.10;;;;;;2272826;60;20428;-61
2023/05/17 02:40:40;0.00;0.00;0.62;0.00;0.00;0.62;4.03;2.37;;;22.50;22.10;;;;;;2272383;60;20378;-61
2023/05/17 02:43:25;0.00;0.00;0.62;0.00;0.00;0.62;5.60;2.30;;;22.50;22.20;;;;;;2273167;60;20362;-61
2023/05/17 02:46:09;0.00;0.00;0.62;0.00;0.00;0.62;6.53;3.60;;;22.40;22.30;;;;;;2272440;60;20358;-59
2023/05/17 02:48:54;0.00;0.00;0.62;0.00;0.00;0.62;4.07;2.27;;;22.30;22.40;;;;;;2269799;61;20393;-60
2023/05/17 02:51:41;0.00;0.00;0.62;0.00;0.00;0.62;4.73;2.63;;;22.30;22.50;;;;;;2272883;60;20386;-61
2023/05/17 02:54:26;0.00;0.00;0.62;0.00;0.00;0.62;4.90;2.80;;;22.30;22.60;;;;;;2269110;60;20362;-60
2023/05/17 02:57:10;0.00;0.00;0.62;0.00;0.00;0.62;4.20;2.60;;;22.20;22.60;;;;;;2269949;61;20381;-61
2023/05/17 02:59:55;0.00;0.00;0.62;0.00;0.00;0.62;3.93;2.57;;;22.20;22.70;;;;;;2272624;60;20357;-60
2023/05/17 03:02:40;0.00;0.00;0.62;0.00;0.00;0.62;5.90;2.87;;;22.10;22.80;;;;;;2268824;61;20380;-59
2023/05/17 03:05:25;0.00;0.00;0.62;0.00;0.00;0.62;3.40;2.30;;;22.10;22.80;;;;;;2269919;61;20358;-61
2023/05/17 03:08:11;0.00;0.00;0.62;0.00;0.00;0.62;5.27;2.77;;;22.00;22.80;;;;;;2269005;61;20759;-61
2023/05/17 03:10:56;0.00;0.00;0.62;0.00;0.00;0.62;4.00;2.70;;;22.10;23.00;;;;;;2269766;61;20971;-59
2023/05/17 03:13:40;0.00;0.00;0.62;0.00;0.00;0.62;4.70;2.10;;;22.00;23.10;;;;;;2269308;61;20369;-61
2023/05/17 03:16:26;0.00;0.00;0.62;0.00;0.00;0.62;3.53;2.03;;;22.00;23.10;;;;;;2269265;61;20449;-60
2023/05/17 03:19:11;0.00;0.00;0.62;0.00;0.00;0.62;4.17;2.63;;;21.90;23.10;;;;;;2272663;61;20947;-61
2023/05/17 03:21:56;0.00;0.00;0.62;0.00;0.00;0.62;4.50;2.87;;;21.90;23.20;;;;;;2269704;61;20948;-61
2023/05/17 03:24:42;0.00;0.00;0.62;0.00;0.00;0.62;4.53;2.47;;;22.00;23.30;;;;;;2268892;61;20363;-61
2023/05/17 03:27:29;0.00;0.00;0.62;0.00;0.00;0.62;5.30;3.10;;;21.90;23.20;;;;;;2269947;61;20397;-61
2023/05/17 03:30:14;0.00;0.00;0.62;0.00;0.00;0.62;4.03;2.73;;;21.90;23.30;;;;;;2269005;60;20358;-59
2023/05/17 03:32:59;0.00;0.00;0.62;0.00;0.00;0.62;4.50;2.87;;;21.90;23.30;;;;;;2273075;60;20485;-61
2023/05/17 03:35:47;0.00;0.00;0.62;0.00;0.00;0.62;4.00;2.47;;;21.90;23.40;;;;;;2269923;61;20355;-61
2023/05/17 03:38:32;0.00;0.00;0.62;0.00;0.00;0.62;3.73;2.43;;;21.90;23.40;;;;;;2272224;60;20386;-61
2023/05/17 03:41:18;0.00;0.00;0.62;0.00;0.00;0.62;6.63;3.50;;;21.90;23.30;;;;;;2269653;61;20400;-58
2023/05/17 03:44:04;0.00;0.00;0.62;0.00;0.00;0.62;4.57;2.63;;;21.90;23.40;;;;;;2269001;61;20921;-59
2023/05/17 03:46:50;0.00;0.00;0.62;0.00;0.00;0.62;6.70;3.30;;;21.90;23.40;;;;;;2269147;60;20408;-60
2023/05/17 03:49:36;0.00;0.00;0.62;0.00;0.00;0.62;4.87;2.93;;;21.90;23.40;;;;;;2269652;61;20366;-60
2023/05/17 03:52:21;0.00;0.00;0.62;0.00;0.00;0.62;5.70;3.00;;;21.90;23.30;;;;;;2269300;61;20431;-60
2023/05/17 03:55:08;0.00;0.00;0.62;0.00;0.00;0.62;7.33;3.10;;;21.90;23.90;;;;;;2269531;60;20454;-61
2023/05/17 03:57:54;0.00;0.00;0.62;0.00;0.00;0.62;6.73;2.87;;;21.90;23.40;;;;;;2269774;61;20802;-60
2023/05/17 04:00:39;0.00;0.00;0.62;0.00;0.00;0.62;6.70;2.83;;;21.90;23.40;;;;;;2268895;61;20523;-61
2023/05/17 04:03:30;0.00;0.00;0.62;0.00;0.00;0.62;4.67;2.50;;;21.80;23.40;;;;;;2269531;60;20353;-59
2023/05/17 04:06:16;0.00;0.00;0.62;0.00;0.00;0.62;5.23;2.87;;;21.80;23.40;;;;;;2269253;61;20359;-60
2023/05/17 04:09:01;0.00;0.00;0.62;0.00;0.00;0.62;4.30;2.43;;;21.80;23.40;;;;;;2272053;60;20394;-61
2023/05/17 04:11:46;0.00;0.00;0.62;0.00;0.00;0.62;7.20;3.20;;;21.80;23.40;;;;;;2269446;60;20452;-58
2023/05/17 04:14:32;0.00;0.00;0.62;0.00;0.00;0.62;4.20;2.80;;;21.80;23.40;;;;;;2268537;61;20366;-61
2023/05/17 04:17:17;0.00;0.00;0.62;0.00;0.00;0.62;3.73;2.20;;;21.80;23.40;;;;;;2269841;61;20463;-62
2023/05/17 04:20:05;0.00;0.00;0.62;0.00;0.00;0.62;6.30;2.67;;;21.80;23.40;;;;;;2268891;60;20842;-66
2023/05/17 04:22:51;0.00;0.00;0.62;0.00;0.00;0.62;6.33;2.90;;;21.80;23.40;;;;;;2268847;61;20362;-63
2023/05/17 04:25:36;0.00;0.00;0.62;0.00;0.00;0.62;5.00;2.90;;;21.90;23.40;;;;;;2269400;61;20355;-60
2023/05/17 04:28:21;0.00;0.00;0.62;0.00;0.00;0.62;5.83;2.70;;;21.90;23.30;;;;;;2268907;60;20898;-59
2023/05/17 04:31:08;0.00;0.00;0.62;0.00;0.00;0.62;4.40;2.00;;;21.90;23.40;;;;;;2271873;60;20424;-60
2023/05/17 04:33:52;0.00;0.00;0.62;0.00;0.00;0.62;5.33;2.73;;;21.90;23.30;;;;;;2269397;61;20396;-63
2023/05/17 04:36:37;0.00;0.00;0.62;0.00;0.00;0.62;4.90;2.90;;;21.90;23.40;;;;;;2272319;60;20393;-61
2023/05/17 04:39:22;0.00;0.00;0.62;0.00;0.00;0.62;4.63;2.50;;;21.90;23.40;;;;;;2269132;61;20370;-60
2023/05/17 04:42:07;0.00;0.00;0.62;0.00;0.00;0.62;8.10;3.13;;;21.90;23.30;;;;;;2269292;61;20417;-62
2023/05/17 04:44:56;0.00;0.00;0.62;0.00;0.00;0.62;4.47;2.70;;;21.90;23.30;;;;;;2268767;60;20487;-63
2023/05/17 04:47:43;0.00;0.00;0.62;0.00;0.00;0.62;6.83;2.67;;;21.90;23.30;;;;;;2269466;61;20354;-62
2023/05/17 04:50:28;0.00;0.00;0.62;0.00;0.00;0.62;8.27;2.73;;;21.90;23.30;;;;;;2268797;61;20440;-63
2023/05/17 04:53:14;0.00;0.00;0.62;0.00;0.00;0.62;6.30;3.03;;;21.90;23.30;;;;;;2268969;60;20350;-63
2023/05/17 04:56:00;0.00;0.00;0.62;0.00;0.00;0.62;4.57;2.97;;;21.90;23.30;;;;;;2269691;61;20366;-63
2023/05/17 04:58:45;0.00;0.00;0.62;0.00;0.00;0.62;4.53;2.60;;;21.80;23.20;;;;;;2272513;60;20386;-63
2023/05/17 05:01:30;0.00;0.00;0.62;0.00;0.00;0.62;5.60;2.60;;;21.90;23.40;;;;;;2269277;60;20454;-62
2023/05/17 05:04:18;0.00;0.00;0.62;0.00;0.00;0.62;6.43;3.10;;;21.90;23.40;;;;;;2269360;61;20408;-67
2023/05/17 05:07:06;0.00;0.00;0.62;0.00;0.00;0.62;4.80;2.80;;;21.80;23.90;;;;;;2268951;61;20359;-63
2023/05/17 05:09:51;0.00;0.00;0.62;0.00;0.00;0.62;8.20;3.53;;;21.80;23.40;;;;;;2268982;60;20365;-63
2023/05/17 05:12:37;0.00;0.00;0.62;0.00;0.00;0.62;6.80;3.50;;;21.80;23.30;;;;;;2269056;60;20831;-65
2023/05/17 05:15:23;0.00;0.00;0.62;0.00;0.00;0.62;4.60;2.60;;;21.80;23.30;;;;;;2268827;61;20398;-61
2023/05/17 05:18:13;0.00;0.00;0.62;0.00;0.00;0.62;9.13;3.30;;;21.80;23.30;;;;;;2269232;60;20916;-62
2023/05/17 05:20:59;0.00;0.00;0.62;0.00;0.00;0.62;5.80;2.77;;;21.80;23.40;;;;;;2271709;60;20416;-62
2023/05/17 05:23:44;0.00;0.00;0.62;0.00;0.00;0.62;7.50;3.30;;;21.80;23.40;;;;;;2269265;61;20805;-63
2023/05/17 05:26:31;0.00;0.00;0.62;0.00;0.00;0.62;7.63;2.93;;;21.80;23.30;;;;;;2269247;60;20420;-62
2023/05/17 05:29:17;0.00;0.00;0.62;0.00;0.00;0.62;7.43;3.47;;;21.70;23.30;;;;;;2268507;61;20374;-61
2023/05/17 05:32:03;0.00;0.00;0.62;0.00;0.00;0.62;9.67;3.00;;;21.80;23.20;;;;;;2269117;61;20423;-61
2023/05/17 05:34:51;0.00;0.00;0.62;0.00;0.00;0.62;5.40;2.83;;;21.80;23.20;;;;;;2268738;60;20398;-64
2023/05/17 05:37:37;0.00;0.00;0.62;0.00;0.00;0.62;5.20;3.17;;;21.80;23.30;;;;;;2268843;61;20369;-61
2023/05/17 05:40:22;0.00;0.00;0.62;0.00;0.00;0.62;4.13;2.77;;;21.70;23.20;;;;;;2269070;61;20492;-63
2023/05/17 05:43:07;0.00;0.00;0.62;0.00;0.00;0.62;8.93;2.93;;;21.80;23.20;;;;;;2268759;60;20464;-60
2023/05/17 05:45:52;0.00;0.00;0.62;0.00;0.00;0.62;6.13;2.97;;;21.70;23.00;;;;;;2268607;60;20381;-58
2023/05/17 05:48:40;0.00;0.00;0.62;0.00;0.00;0.62;6.53;3.13;;;21.70;23.00;;;;;;2272446;60;20377;-59
2023/05/17 05:51:25;0.00;0.00;0.62;0.00;0.00;0.62;5.73;2.57;;;21.70;23.50;;;;;;2268620;60;20381;-57
2023/05/17 05:54:12;0.00;0.00;0.62;0.00;0.00;0.62;8.03;2.87;;;21.70;22.90;;;;;;2269148;60;20768;-59
2023/05/17 05:56:59;0.00;0.00;0.62;0.00;0.00;0.62;4.50;2.73;;;21.70;22.90;;;;;;2270615;60;20935;-61
2023/05/17 05:59:44;0.00;0.00;0.62;0.00;0.00;0.62;5.37;2.90;;;21.70;22.90;;;;;;2266723;61;20400;-58
2023/05/17 06:02:29;0.00;0.00;0.62;0.00;0.00;0.62;5.07;2.57;;;21.70;22.90;;;;;;2268038;61;20355;-58
2023/05/17 06:05:16;0.00;0.00;0.62;0.00;0.00;0.62;6.37;2.30;;;21.70;22.80;;;;;;2267902;61;20409;-57
2023/05/17 06:08:00;0.00;0.00;0.62;0.00;0.00;0.62;5.60;2.70;;;21.70;22.70;;;;;;2267898;61;20360;-62
2023/05/17 06:10:46;0.00;0.00;0.62;0.00;0.00;0.62;7.03;3.27;;;21.80;22.70;;;;;;2268071;61;20375;-61
2023/05/17 06:13:31;0.00;0.00;0.62;0.00;0.00;0.62;4.03;2.10;;;21.70;22.70;;;;;;2267253;61;20367;-56
2023/05/17 06:16:15;0.00;0.00;0.62;0.00;0.00;0.62;6.13;2.77;;;21.70;22.70;;;;;;2268141;61;20371;-60
2023/05/17 06:19:00;0.00;0.00;0.62;0.00;0.00;0.62;4.23;1.83;;;21.70;22.70;;;;;;2267548;61;20490;-65
2023/05/17 06:21:45;0.00;0.00;0.62;0.00;0.00;0.62;5.53;2.33;;;21.80;22.80;;;;;;2267086;61;20425;-60
2023/05/17 06:24:29;0.00;0.00;0.62;0.00;0.00;0.62;3.90;1.93;;;21.80;22.70;;;;;;2267852;61;20386;-58
2023/05/17 06:27:15;0.00;0.00;0.62;0.00;0.00;0.62;4.10;2.33;;;21.80;22.80;;;;;;2401052;53;20359;-59
2023/05/17 06:30:00;0.00;0.00;0.62;0.00;0.00;0.62;4.90;2.20;;;21.80;22.70;;;;;;2267178;61;20371;-61
2023/05/17 06:32:45;0.00;0.00;0.62;0.00;0.00;0.62;3.30;1.83;;;21.80;22.60;;;;;;2268427;61;20425;-58
2023/05/17 06:35:30;0.00;0.00;0.62;0.00;0.00;0.62;3.60;1.70;;;21.80;22.60;;;;;;2267320;61;20375;-60
2023/05/17 06:38:14;0.00;0.00;0.62;0.00;0.00;0.62;5.23;2.37;;;21.80;22.60;;;;;;2268659;61;20387;-64
2023/05/17 06:41:00;0.00;0.00;0.62;0.00;0.00;0.62;2.90;1.70;;;21.90;22.60;;;;;;2269187;61;20413;-59
2023/05/17 06:43:46;0.00;0.00;0.62;0.00;0.00;0.62;5.33;2.30;;;21.90;22.50;;;;;;2267948;61;20412;-64
2023/05/17 06:46:30;0.00;0.00;0.62;0.00;0.00;0.62;2.90;1.90;;;21.90;22.40;;;;;;2269082;61;20383;-58
2023/05/17 06:49:15;0.00;0.00;0.62;0.00;0.00;0.62;6.40;2.40;;;21.90;22.30;;;;;;2268204;61;20421;-59
2023/05/17 06:52:02;0.00;0.00;0.62;0.00;0.00;0.62;3.50;1.70;;;21.90;22.30;;;;;;2268020;61;20399;-58
2023/05/17 06:54:47;0.00;0.00;0.62;0.00;0.00;0.62;3.13;1.93;;;21.90;22.30;;;;;;2269031;61;20355;-57
2023/05/17 06:57:32;0.00;0.00;0.62;0.00;0.00;0.62;4.07;1.80;;;22.00;22.40;;;;;;2267974;61;20390;-58
2023/05/17 07:00:20;0.00;0.00;0.62;0.00;0.00;0.62;4.03;2.43;;;22.00;22.40;;;;;;2268222;61;20363;-54
2023/05/17 07:03:05;0.00;0.00;0.62;0.00;0.00;0.62;9.17;4.07;;;22.00;22.30;;;;;;2268484;61;20800;-50
2023/05/17 07:05:49;0.00;0.00;0.62;0.00;0.00;0.62;7.40;6.13;;;22.00;22.40;;;;;;2268097;61;20359;-54
2023/05/17 07:08:34;0.00;0.00;0.62;0.00;0.00;0.62;8.93;6.10;;;22.10;22.50;;;;;;2269119;61;20485;-60
2023/05/17 07:11:19;0.00;0.00;0.62;0.00;0.00;0.62;7.80;6.33;;;22.10;22.50;;;;;;2268374;61;20375;-52
2023/05/17 07:14:04;0.00;0.00;0.62;0.00;0.00;0.62;12.73;8.13;;;22.10;22.50;;;;;;2268269;61;20890;-54
2023/05/17 07:16:50;0.00;0.00;0.62;0.00;0.00;0.62;10.27;7.50;;;22.20;22.70;;;;;;2269027;61;21001;-57
2023/05/17 07:19:35;0.00;0.00;0.62;0.00;0.00;0.62;9.30;6.93;;;22.20;22.60;;;;;;2267959;61;20881;-62
2023/05/17 07:22:20;0.00;0.00;0.62;0.00;0.00;0.62;8.93;6.90;;;22.30;22.60;;;;;;2268804;61;20421;-59
2023/05/17 07:25:07;0.00;0.00;0.62;0.00;0.00;0.62;11.80;6.30;;;22.30;22.70;;;;;;2268774;61;20879;-58
2023/05/17 07:27:51;0.00;0.00;0.62;0.00;0.00;0.62;8.90;7.20;;;22.30;22.60;;;;;;2268548;61;20756;-61
2023/05/17 07:30:36;0.00;0.00;0.62;0.00;0.00;0.62;10.23;7.20;;;22.30;22.60;;;;;;2268562;61;20383;-61
2023/05/17 07:33:23;0.00;0.00;0.62;0.00;0.00;0.62;16.47;7.60;;;22.40;22.70;;;;;;2268516;61;20383;-58
2023/05/17 07:36:08;0.00;0.00;0.62;0.00;0.00;0.62;8.97;6.77;;;22.40;22.70;;;;;;2268380;61;20379;-58
2023/05/17 07:38:53;0.00;0.00;0.62;0.00;0.00;0.62;6.97;5.60;;;22.40;22.70;;;;;;2265398;61;20474;-61
2023/05/17 07:41:38;0.00;0.00;0.62;0.00;0.00;0.62;9.10;6.70;;;22.50;22.70;;;;;;2265068;61;20383;-62
2023/05/17 07:44:23;0.00;0.00;0.62;0.00;0.00;0.62;9.47;7.07;;;22.50;23.20;;;;;;2268119;61;20387;-63
2023/05/17 07:47:08;0.00;0.00;0.62;0.00;0.00;0.62;10.40;7.70;;;22.50;22.70;;;;;;2268773;61;20356;-63
2023/05/17 07:49:55;0.00;0.00;0.62;0.00;0.00;0.62;10.40;7.20;;;22.60;22.80;;;;;;2263626;61;20810;-64
2023/05/17 07:52:40;0.00;0.00;0.62;0.00;0.00;0.62;7.23;5.17;;;22.60;22.80;;;;;;2268793;61;20455;-60
2023/05/17 07:55:25;0.00;0.00;0.62;0.00;0.00;0.62;9.93;6.60;;;22.70;22.80;;;;;;2268466;61;20381;-62
2023/05/17 07:58:10;0.00;0.00;0.62;0.00;0.00;0.62;8.53;5.90;;;22.70;22.80;;;;;;2264760;61;20428;-60
2023/05/17 08:00:55;0.00;0.00;0.62;0.00;0.00;0.62;8.77;6.57;;;22.80;23.20;;;;;;2264876;61;20379;-61
2023/05/17 08:03:46;0.00;0.00;0.62;0.00;0.00;0.62;9.07;7.53;;;22.80;22.80;;;;;;2266991;61;20398;-60
2023/05/17 08:06:32;0.00;0.00;0.62;0.00;0.00;0.62;12.77;8.13;;;22.80;22.80;;;;;;2267841;61;20366;-60
2023/05/17 08:09:18;0.00;0.00;0.62;0.00;0.00;0.62;10.27;7.50;;;22.90;22.80;;;;;;2268492;61;20360;-62
2023/05/17 08:12:05;0.00;0.00;0.62;0.00;0.00;0.62;13.13;10.30;;;22.90;22.80;;;;;;2268111;61;20857;-64
2023/05/17 08:14:50;0.00;0.00;0.62;0.00;0.00;0.62;13.20;9.63;;;23.00;22.90;;;;;;2268462;61;20371;-53
2023/05/17 08:17:35;0.00;0.00;0.62;0.00;0.00;0.62;13.10;10.47;;;23.00;22.80;;;;;;2268449;61;20356;-59
2023/05/17 08:20:20;0.00;0.00;0.62;0.00;0.00;0.62;13.07;11.23;;;23.00;22.90;;;;;;2267308;61;20378;-55
2023/05/17 08:23:06;0.00;0.00;0.62;0.00;0.00;0.62;15.20;10.90;;;23.10;22.90;;;;;;2268348;61;20378;-55
2023/05/17 08:25:51;0.00;0.00;0.62;0.00;0.00;0.62;14.83;9.93;;;23.10;22.80;;;;;;2267780;61;20367;-53
2023/05/17 08:28:36;0.00;0.00;0.62;0.00;0.00;0.62;11.30;9.10;;;23.10;22.80;;;;;;2268205;61;20834;-52
2023/05/17 08:31:20;0.00;0.00;0.62;0.00;0.00;0.62;11.27;8.47;;;23.20;22.70;;;;;;2268103;61;20391;-61
2023/05/17 08:34:05;0.00;0.00;0.62;0.00;0.00;0.62;14.93;11.50;;;23.20;22.70;;;;;;2267613;61;20594;-55
2023/05/17 08:36:50;0.00;0.00;0.62;0.00;0.00;0.62;13.87;10.37;;;23.30;22.80;;;;;;2268119;61;20352;-53
2023/05/17 08:39:36;0.00;0.00;0.62;0.00;0.00;0.62;11.97;7.70;;;23.30;22.80;;;;;;2267727;61;20383;-58
2023/05/17 08:42:25;0.00;0.00;0.62;0.00;0.00;0.62;10.20;7.60;;;23.30;22.60;;;;;;2267802;61;20436;-55
2023/05/17 08:45:10;0.00;0.00;0.62;0.00;0.00;0.62;11.47;6.40;;;23.30;22.50;;;;;;2268432;61;20356;-51
2023/05/17 08:47:55;0.00;0.00;0.62;0.00;0.00;0.62;7.13;4.60;;;23.40;22.40;;;;;;2268521;61;20954;-58
2023/05/17 08:50:41;0.00;0.00;0.62;0.00;0.00;0.62;8.93;5.20;;;23.40;22.30;;;;;;2266735;61;20424;-58
2023/05/17 08:53:27;0.00;0.00;0.62;0.00;0.00;0.62;17.50;7.20;;;23.40;22.30;;;;;;2268500;61;20405;-59
2023/05/17 08:56:16;0.00;0.00;0.62;0.00;0.00;0.62;12.73;6.10;;;23.50;22.40;;;;;;2267730;61;20894;-61
2023/05/17 08:59:04;0.00;0.00;0.62;0.00;0.00;0.62;10.00;5.83;;;23.50;22.40;;;;;;2267548;61;20597;-58
2023/05/17 09:01:53;0.00;0.00;0.62;0.00;0.00;0.62;22.27;7.50;;;23.50;22.40;;;;;;2267968;61;20383;-58
2023/05/17 09:04:38;0.00;0.00;0.62;0.00;0.00;0.62;18.00;6.20;;;23.50;22.30;;;;;;2267426;61;20979;-62
2023/05/17 09:07:23;0.00;0.00;0.62;0.00;0.00;0.62;14.20;4.73;;;23.60;22.30;;;;;;2268326;61;20891;-60
2023/05/17 09:10:09;0.00;0.00;0.62;0.00;0.00;0.62;11.87;5.10;;;23.60;22.30;;;;;;2267687;61;20444;-58
2023/05/17 09:12:56;0.00;0.00;0.62;0.00;0.00;0.62;11.23;4.10;;;23.60;22.20;;;;;;2267599;61;20891;-57
2023/05/17 09:15:42;0.00;0.00;0.62;0.00;0.00;0.62;7.03;3.50;;;23.60;22.00;;;;;;2268648;61;20831;-58
2023/05/17 09:18:31;0.00;0.00;0.62;0.00;0.00;0.62;5.90;3.13;;;23.60;21.80;;;;;;2267327;61;20429;-57
2023/05/17 09:21:16;0.00;0.00;0.62;0.00;0.00;0.62;3.57;1.83;;;23.60;21.80;;;;;;2267035;61;20383;-61
2023/05/17 09:24:01;0.00;0.00;0.62;0.00;0.00;0.62;3.83;2.17;;;23.60;21.80;;;;;;2267565;61;20409;-56
2023/05/17 09:26:46;0.00;0.00;0.62;0.00;0.00;0.62;3.53;2.17;;;23.60;21.80;;;;;;2271940;61;20342;-61
2023/05/17 09:29:32;0.00;0.00;0.62;0.00;0.00;0.62;3.80;2.07;;;23.70;21.90;;;;;;2272214;60;20930;-60
2023/05/17 09:32:23;0.00;0.00;0.62;0.00;0.00;0.62;3.40;2.17;;;23.70;22.00;;;;;;2268244;61;20835;-60
2023/05/17 09:35:09;0.00;0.00;0.62;0.00;0.00;0.62;3.77;1.77;;;23.70;22.00;;;;;;2263817;61;20938;-60
2023/05/17 09:38:03;0.00;0.00;0.62;0.00;0.00;0.62;5.90;2.30;;;23.70;22.00;;;;;;2264560;61;20483;-55
2023/05/17 09:40:49;0.00;0.00;0.62;0.00;0.00;0.62;4.07;1.80;;;23.80;22.00;;;;;;2263124;61;20867;-54
2023/05/17 09:43:34;0.00;0.00;0.62;0.00;0.00;0.62;4.10;2.03;;;23.80;22.00;;;;;;2263526;61;20433;-59
2023/05/17 09:46:22;0.00;0.00;0.62;0.00;0.00;0.62;3.77;1.77;;;23.80;22.00;;;;;;2263588;61;20399;-53
2023/05/17 09:49:08;0.00;0.00;0.62;0.00;0.00;0.62;2.83;1.87;;;23.90;22.00;;;;;;2260096;61;20430;-57
2023/05/17 09:51:53;0.00;0.00;0.62;0.00;0.00;0.62;3.50;1.70;;;23.90;22.00;;;;;;2264241;61;20375;-57
2023/05/17 09:54:40;0.00;0.00;0.62;0.00;0.00;0.62;2.63;1.40;;;23.90;21.90;;;;;;2266238;61;20405;-63
2023/05/17 09:57:27;0.00;0.00;0.62;0.00;0.00;0.62;3.77;2.00;;;24.00;22.00;;;;;;2264915;61;20406;-58
2023/05/17 10:00:16;0.00;0.00;0.62;0.00;0.00;0.62;3.40;1.63;;;24.00;22.00;;;;;;2267531;61;20418;-56
2023/05/17 10:03:04;0.00;0.00;0.62;0.00;0.00;0.62;3.50;2.03;;;24.00;22.00;;;;;;2267809;61;20400;-54
2023/05/17 10:05:52;0.00;0.00;0.62;0.00;0.00;0.62;3.63;1.90;;;24.10;22.10;;;;;;2267926;61;20929;-58
2023/05/17 10:08:42;0.00;0.00;0.62;0.00;0.00;0.62;3.80;2.20;;;24.10;22.00;;;;;;2268151;61;20343;-66
2023/05/17 10:11:33;0.00;0.00;0.62;0.00;0.00;0.62;3.83;2.63;;;24.10;22.00;;;;;;2268308;61;20463;-61
2023/05/17 10:14:24;0.00;0.00;0.62;0.00;0.00;0.62;3.57;2.87;;;24.10;22.00;;;;;;2268714;61;20405;-58
2023/05/17 10:17:10;0.00;0.00;0.62;0.00;0.00;0.62;5.97;3.87;;;24.20;22.00;;;;;;2265454;61;20455;-58
2023/05/17 10:19:57;0.00;0.00;0.62;0.00;0.00;0.62;7.43;3.87;;;24.20;22.00;;;;;;2268299;61;20389;-58
2023/05/17 10:22:42;0.00;0.00;0.62;0.00;0.00;0.62;7.57;4.50;;;24.20;21.90;;;;;;2269085;61;20413;-60
2023/05/17 10:25:28;0.00;0.00;0.62;0.00;0.00;0.62;4.73;3.20;;;24.30;22.00;;;;;;2267552;61;20487;-59
2023/05/17 10:28:16;0.00;0.00;0.62;0.00;0.00;0.62;4.63;3.30;;;24.30;21.90;;;;;;2497725;53;20356;-60
2023/05/17 10:31:02;0.00;0.00;0.62;0.00;0.00;0.62;5.30;2.97;;;24.30;21.90;;;;;;2264415;61;20427;-59
2023/05/17 10:33:50;0.00;0.00;0.62;0.00;0.00;0.62;4.40;3.23;;;24.30;21.90;;;;;;2265013;61;20418;-62
2023/05/17 10:36:36;0.00;0.00;0.62;0.00;0.00;0.62;5.30;3.50;;;24.40;21.90;;;;;;2268056;57;20362;-59
2023/05/17 10:39:22;0.00;0.00;0.62;0.00;0.00;0.62;6.27;4.30;;;24.40;21.90;;;;;;2567143;45;20986;-61
2023/05/17 10:42:11;0.00;0.00;0.62;0.00;0.00;0.62;6.60;4.93;;;24.40;21.80;;;;;;1628059;73;20512;-59
2023/05/17 10:44:56;0.00;0.00;0.62;0.00;0.00;0.62;4.80;3.70;;;24.50;21.90;;;;;;2267509;61;20442;-63
2023/05/17 10:47:42;0.00;0.00;0.62;0.00;0.00;0.62;5.43;4.20;;;24.50;21.90;;;;;;2267337;61;20409;-55
2023/05/17 10:50:27;0.00;0.00;0.62;0.00;0.00;0.62;9.13;4.90;;;24.60;22.00;;;;;;2267491;61;20391;-58
2023/05/17 10:53:12;0.00;0.00;0.62;0.00;0.00;0.62;5.73;4.63;;;24.60;22.00;;;;;;2270812;61;20372;-62
2023/05/17 10:55:57;0.00;0.00;0.62;0.00;0.00;0.62;6.20;4.77;;;24.60;22.00;;;;;;2268271;61;20418;-63